Accueil
METAR-TAF:

METAR-TAF

Aéroports :

Aéroport de Dzaoudzi-Pamandzi

Dzaoudzi, Mayotte

latitude: 12-48S, longitude: 045-17E, altitude: 8 m

Observation

Le bulletin a été fait il y a 30 minutes, à 03:00 UTC
Vent 11 kt de sud/sud-est
Température 26°C
Humidité 70%
Pression 1016 hPa
Visibilité 10 km ou plus
Quelques nuages à une hauteur de 3100 ft

METAR: FMCZ 220300Z AUTO 15011KT 9999 FEW031 26/20 Q1016 NOSIG

Heure: 06:30 (03:30 UTC)

Prévision

Le bulletin a été fait il y a 4 heures et 30 minutes, à 23:00 UTC
Prévision valable du 22 à 00 UTC au 22 à 24 UTC
Vent 12 kt de sud/sud-est
Visibilité 10 km ou plus
Nuages épars à une hauteur de 2500 ft

TAF: FMCZ 212300Z 2200/2224 16012KT 9999 SCT025

Observations et prévisions météorologiques de plus de 4000 aéroports (messages METAR et TAF).

Les stations disponibles sont représentées par des disques jaunes et rouges sur la carte.

Passer la souris dessus pour voir le nom de la station.

Cliquer dessus pour voir les observations et prévisions météorologiques.

Pour changer de carte: cliquez sur les boutons verts avec une croix noire pour zoomer, sur le bouton vert avec un tiret pour effectuer un zoom arrière, ou sur les flèches vertes pour les cartes adjacentes.


METAR-TAF: